createdAt,value
2019-05-22T00:00:02.612Z,0.00
2019-05-22T00:01:02.601Z,0.00
2019-05-22T00:02:02.570Z,0.00
2019-05-22T00:03:03.017Z,0.00
2019-05-22T00:04:02.591Z,0.00
2019-05-22T00:05:02.876Z,0.00
2019-05-22T00:06:02.532Z,0.00
2019-05-22T00:07:02.547Z,0.00
2019-05-22T00:08:02.512Z,0.00
2019-05-22T00:09:02.506Z,0.00
2019-05-22T00:10:02.498Z,0.00
2019-05-22T00:11:02.481Z,0.00
2019-05-22T00:12:02.466Z,0.00
2019-05-22T00:13:02.477Z,0.00
2019-05-22T00:14:02.458Z,0.00
2019-05-22T00:15:03.211Z,0.00
2019-05-22T00:16:02.407Z,0.00
2019-05-22T00:17:02.402Z,0.00
2019-05-22T00:18:02.403Z,0.00
2019-05-22T00:19:02.410Z,0.00
2019-05-22T00:20:02.377Z,0.00
2019-05-22T00:21:02.416Z,0.00
2019-05-22T00:22:02.347Z,0.00
2019-05-22T00:23:02.343Z,0.00
2019-05-22T00:24:02.335Z,0.00
2019-05-22T00:25:02.367Z,0.00
2019-05-22T00:26:02.343Z,0.00
2019-05-22T00:27:02.292Z,0.00
2019-05-22T00:28:02.282Z,0.00
2019-05-22T00:29:02.301Z,0.00
2019-05-22T00:30:02.277Z,0.00
2019-05-22T00:31:02.276Z,0.00
2019-05-22T00:32:02.236Z,0.00
2019-05-22T00:33:02.262Z,0.00
2019-05-22T00:34:02.213Z,0.00
2019-05-22T00:35:02.198Z,0.00
2019-05-22T00:36:02.225Z,0.00
2019-05-22T00:37:02.203Z,0.00
2019-05-22T00:38:02.163Z,0.00
2019-05-22T00:39:02.199Z,0.00
2019-05-22T00:40:02.163Z,0.00
2019-05-22T00:41:02.135Z,0.00
2019-05-22T00:42:02.142Z,0.00
2019-05-22T00:43:05.463Z,0.00
2019-05-22T00:44:03.092Z,0.00
2019-05-22T00:45:02.113Z,0.00
2019-05-22T00:46:02.100Z,0.00
2019-05-22T00:47:02.067Z,0.00
2019-05-22T00:48:02.065Z,0.00
2019-05-22T00:49:02.070Z,0.00
2019-05-22T00:50:02.023Z,0.00
2019-05-22T00:51:02.043Z,0.00
2019-05-22T00:52:02.029Z,0.00
2019-05-22T00:53:02.088Z,0.00
2019-05-22T00:54:01.981Z,0.00
2019-05-22T00:55:02.000Z,0.00
2019-05-22T00:56:01.975Z,0.00
2019-05-22T00:57:02.054Z,0.00
2019-05-22T00:58:01.954Z,0.00
2019-05-22T00:59:02.042Z,0.00
2019-05-22T01:00:02.104Z,0.00
2019-05-22T01:01:01.926Z,0.00
2019-05-22T01:02:01.899Z,0.00
2019-05-22T01:03:01.881Z,0.00
2019-05-22T01:04:01.869Z,0.00
2019-05-22T01:05:01.921Z,0.00
2019-05-22T01:06:01.853Z,0.00
2019-05-22T01:07:01.857Z,0.00
2019-05-22T01:08:01.819Z,0.00
2019-05-22T01:09:01.808Z,0.00
2019-05-22T01:10:02.330Z,0.00
2019-05-22T01:11:01.792Z,0.00
2019-05-22T01:12:02.129Z,0.00
2019-05-22T01:13:01.791Z,0.00
2019-05-22T01:14:01.759Z,0.00
2019-05-22T01:15:01.836Z,0.00
2019-05-22T01:16:01.743Z,0.00
2019-05-22T01:17:01.732Z,0.00
2019-05-22T01:18:01.732Z,0.00
2019-05-22T01:19:01.733Z,0.00
2019-05-22T01:20:01.701Z,0.00
2019-05-22T01:21:01.694Z,0.00
2019-05-22T01:22:01.841Z,0.00
2019-05-22T01:23:01.657Z,0.00
2019-05-22T01:24:01.651Z,0.00
2019-05-22T01:25:01.792Z,0.00
2019-05-22T01:26:01.630Z,0.00
2019-05-22T01:27:01.622Z,0.00
2019-05-22T01:28:01.608Z,0.00
2019-05-22T01:29:01.594Z,0.00
2019-05-22T01:30:01.595Z,0.00
2019-05-22T01:31:01.589Z,0.00
2019-05-22T01:32:01.563Z,0.00
2019-05-22T01:33:01.600Z,0.00
2019-05-22T01:34:01.527Z,0.00
2019-05-22T01:35:01.548Z,0.00
2019-05-22T01:36:01.515Z,0.00
2019-05-22T01:37:01.522Z,0.00
2019-05-22T01:38:01.496Z,0.00
2019-05-22T01:39:01.473Z,0.00
2019-05-22T01:40:01.484Z,0.00
2019-05-22T01:41:01.483Z,0.00
2019-05-22T01:42:01.483Z,0.00
2019-05-22T01:43:01.506Z,0.00
2019-05-22T01:44:01.429Z,0.00
2019-05-22T01:45:06.535Z,0.00
2019-05-22T01:46:01.393Z,0.00
2019-05-22T01:47:01.375Z,0.00
2019-05-22T01:48:01.422Z,0.00
2019-05-22T01:49:01.379Z,0.00
2019-05-22T01:50:01.398Z,0.00
2019-05-22T01:51:01.364Z,0.00
2019-05-22T01:52:01.340Z,0.00
2019-05-22T01:53:01.325Z,0.00
2019-05-22T01:54:01.348Z,0.00
2019-05-22T01:55:01.321Z,0.00
2019-05-22T01:56:01.313Z,0.00
2019-05-22T01:57:01.271Z,0.00
2019-05-22T01:58:01.260Z,0.00
2019-05-22T01:59:01.249Z,0.00
2019-05-22T02:00:01.239Z,0.00
2019-05-22T02:01:01.253Z,0.00
2019-05-22T02:02:01.205Z,0.00
2019-05-22T02:03:01.203Z,0.00
2019-05-22T02:04:01.204Z,0.00
2019-05-22T02:05:01.185Z,0.00
2019-05-22T02:06:01.199Z,0.00
2019-05-22T02:07:01.231Z,0.00
2019-05-22T02:08:01.214Z,0.00
2019-05-22T02:09:01.132Z,0.00
2019-05-22T02:10:01.149Z,0.00
2019-05-22T02:11:01.109Z,0.00
2019-05-22T02:12:01.089Z,0.00
2019-05-22T02:13:01.127Z,0.00
2019-05-22T02:14:01.085Z,0.00
2019-05-22T02:15:01.066Z,0.00
2019-05-22T02:16:01.050Z,0.00
2019-05-22T02:17:01.168Z,0.00
2019-05-22T02:18:01.042Z,0.00
2019-05-22T02:19:01.035Z,0.00
2019-05-22T02:20:01.009Z,0.00
2019-05-22T02:21:00.999Z,0.00
2019-05-22T02:22:00.988Z,0.00
2019-05-22T02:23:00.988Z,0.00
2019-05-22T02:24:00.971Z,0.00
2019-05-22T02:25:00.970Z,0.00
2019-05-22T02:26:00.939Z,0.00
2019-05-22T02:27:00.924Z,0.00
2019-05-22T02:28:00.924Z,0.00
2019-05-22T02:29:00.916Z,0.00
2019-05-22T02:30:00.887Z,0.00
2019-05-22T02:31:00.901Z,0.00
2019-05-22T02:32:00.875Z,0.00
2019-05-22T02:33:00.867Z,0.00
2019-05-22T02:34:00.848Z,0.00
2019-05-22T02:35:00.846Z,0.00
2019-05-22T02:36:00.861Z,0.00
2019-05-22T02:37:00.836Z,0.00
2019-05-22T02:38:00.801Z,0.00
2019-05-22T02:39:00.784Z,0.00
2019-05-22T02:40:00.790Z,0.00
2019-05-22T02:41:00.764Z,0.00
2019-05-22T02:42:00.758Z,0.00
2019-05-22T02:43:00.782Z,0.00
2019-05-22T02:44:00.754Z,0.00
2019-05-22T02:45:00.744Z,0.00
2019-05-22T02:46:00.716Z,0.00
2019-05-22T02:47:17.080Z,0.00
2019-05-22T02:48:01.707Z,0.00
2019-05-22T02:49:00.709Z,0.00
2019-05-22T02:50:00.685Z,0.00
2019-05-22T02:51:00.676Z,0.00
2019-05-22T02:52:00.649Z,0.00
2019-05-22T02:53:00.629Z,0.00
2019-05-22T02:54:00.629Z,0.00
2019-05-22T02:55:00.610Z,0.00
2019-05-22T02:56:00.609Z,0.00
2019-05-22T02:57:00.584Z,0.00
2019-05-22T02:58:00.578Z,0.00
2019-05-22T02:59:00.555Z,0.00
2019-05-22T03:00:00.589Z,0.00
2019-05-22T03:01:00.554Z,0.00
2019-05-22T03:02:00.537Z,0.00
2019-05-22T03:03:00.515Z,0.00
2019-05-22T03:04:00.508Z,0.00
2019-05-22T03:05:00.503Z,4.00
2019-05-22T03:06:00.518Z,4.00
2019-05-22T03:07:00.485Z,4.00
2019-05-22T03:08:00.456Z,4.00
2019-05-22T03:09:00.446Z,0.00
2019-05-22T03:10:00.439Z,4.00
2019-05-22T03:11:00.432Z,4.00
2019-05-22T03:12:00.449Z,8.00
2019-05-22T03:13:00.403Z,4.00
2019-05-22T03:14:00.397Z,8.00
2019-05-22T03:15:00.396Z,8.00
2019-05-22T03:16:00.381Z,8.00
2019-05-22T03:17:00.365Z,12.00
2019-05-22T03:18:00.360Z,12.00
2019-05-22T03:19:08.876Z,16.00
2019-05-22T03:20:01.341Z,16.00
2019-05-22T03:21:00.322Z,20.00
2019-05-22T03:22:00.318Z,20.00
2019-05-22T03:23:00.285Z,20.00
2019-05-22T03:24:00.311Z,24.00
2019-05-22T03:25:00.283Z,28.00
2019-05-22T03:26:00.268Z,32.00
2019-05-22T03:27:00.247Z,32.00
2019-05-22T03:28:00.231Z,32.00
2019-05-22T03:29:00.218Z,32.00
2019-05-22T03:30:00.261Z,36.00
2019-05-22T03:31:00.208Z,36.00
2019-05-22T03:32:00.185Z,40.00
2019-05-22T03:33:00.188Z,40.00
2019-05-22T03:34:00.182Z,52.00
2019-05-22T03:35:00.193Z,44.00
2019-05-22T03:36:00.154Z,56.00
2019-05-22T03:37:00.123Z,52.00
2019-05-22T03:38:00.161Z,56.00
2019-05-22T03:39:00.098Z,60.00
2019-05-22T03:40:00.113Z,76.00
2019-05-22T03:41:00.085Z,88.00
2019-05-22T03:42:00.093Z,92.00
2019-05-22T03:43:00.122Z,84.00
2019-05-22T03:44:00.056Z,96.00
2019-05-22T03:45:00.043Z,108.00
2019-05-22T03:46:00.040Z,104.00
2019-05-22T03:47:00.015Z,116.00
2019-05-22T03:48:00.050Z,120.00
2019-05-22T03:49:00.002Z,120.00
2019-05-22T03:49:59.977Z,128.00
2019-05-22T03:50:59.990Z,140.00
2019-05-22T03:51:59.969Z,132.00
2019-05-22T03:52:59.948Z,176.00
2019-05-22T03:53:59.955Z,188.00
2019-05-22T03:54:59.926Z,164.00
2019-05-22T03:55:59.904Z,192.00
2019-05-22T03:56:59.898Z,188.00
2019-05-22T03:57:59.897Z,208.00
2019-05-22T03:58:59.896Z,188.00
2019-05-22T03:59:59.888Z,204.00
2019-05-22T04:00:59.853Z,252.00
2019-05-22T04:01:59.846Z,276.00
2019-05-22T04:02:59.827Z,256.00
2019-05-22T04:03:59.823Z,244.00
2019-05-22T04:04:59.811Z,220.00
2019-05-22T04:05:59.831Z,244.00
2019-05-22T04:06:59.791Z,252.00
2019-05-22T04:07:59.798Z,308.00
2019-05-22T04:08:59.778Z,312.00
2019-05-22T04:09:59.751Z,388.00
2019-05-22T04:10:59.733Z,380.00
2019-05-22T04:11:59.770Z,404.00
2019-05-22T04:12:59.714Z,476.00
2019-05-22T04:13:59.721Z,432.00
2019-05-22T04:14:59.711Z,468.00
2019-05-22T04:15:59.684Z,548.00
2019-05-22T04:16:59.675Z,576.00
2019-05-22T04:17:59.689Z,584.00
2019-05-22T04:18:59.668Z,736.00
2019-05-22T04:19:59.639Z,604.00
2019-05-22T04:20:59.636Z,724.00
2019-05-22T04:21:59.627Z,700.00
2019-05-22T04:22:59.613Z,824.00
2019-05-22T04:23:59.603Z,876.00
2019-05-22T04:24:59.583Z,868.00
2019-05-22T04:25:59.596Z,920.00
2019-05-22T04:26:59.585Z,784.00
2019-05-22T04:27:59.541Z,788.00
2019-05-22T04:28:59.541Z,708.00
2019-05-22T04:29:59.567Z,656.00
2019-05-22T04:31:00.008Z,932.00
2019-05-22T04:31:59.521Z,844.00
2019-05-22T04:32:59.492Z,856.00
2019-05-22T04:33:59.492Z,896.00
2019-05-22T04:34:59.475Z,872.00
2019-05-22T04:35:59.472Z,920.00
2019-05-22T04:36:59.465Z,888.00
2019-05-22T04:37:59.454Z,840.00
2019-05-22T04:38:59.419Z,824.00
2019-05-22T04:39:59.427Z,720.00
2019-05-22T04:40:59.467Z,704.00
2019-05-22T04:41:59.410Z,596.00
2019-05-22T04:42:59.390Z,716.00
2019-05-22T04:43:59.377Z,632.00
2019-05-22T04:44:59.389Z,728.00
2019-05-22T04:45:59.354Z,796.00
2019-05-22T04:46:59.345Z,736.00
2019-05-22T04:47:59.351Z,864.00
2019-05-22T04:48:59.303Z,1092.00
2019-05-22T04:50:07.274Z,1168.00
2019-05-22T04:51:00.315Z,1084.00
2019-05-22T04:51:59.297Z,1280.00
2019-05-22T04:52:59.282Z,1380.00
2019-05-22T04:53:59.299Z,1404.00
2019-05-22T04:54:59.247Z,1388.00
2019-05-22T04:55:59.240Z,1300.00
2019-05-22T04:56:59.220Z,1820.00
2019-05-22T04:57:59.204Z,1736.00
2019-05-22T04:58:59.191Z,1740.00
2019-05-22T04:59:59.220Z,1388.00
2019-05-22T05:00:59.209Z,1460.00
2019-05-22T05:01:59.175Z,1380.00
2019-05-22T05:02:59.144Z,1480.00
2019-05-22T05:03:59.141Z,1496.00
2019-05-22T05:04:59.137Z,1360.00
2019-05-22T05:05:59.153Z,1396.00
2019-05-22T05:06:59.107Z,1348.00
2019-05-22T05:07:59.168Z,1440.00
2019-05-22T05:08:59.120Z,1232.00
2019-05-22T05:09:59.075Z,1220.00
2019-05-22T05:10:59.061Z,1292.00
2019-05-22T05:11:59.062Z,1328.00
2019-05-22T05:12:59.028Z,1464.00
2019-05-22T05:13:59.052Z,1376.00
2019-05-22T05:14:59.015Z,1404.00
2019-05-22T05:15:59.005Z,1196.00
2019-05-22T05:16:59.006Z,1296.00
2019-05-22T05:17:59.048Z,1416.00
2019-05-22T05:18:58.973Z,1332.00
2019-05-22T05:19:58.974Z,1348.00
2019-05-22T05:20:58.939Z,1444.00
2019-05-22T05:21:58.936Z,1304.00
2019-05-22T05:22:58.934Z,1040.00
2019-05-22T05:23:58.934Z,1044.00
2019-05-22T05:24:58.962Z,1028.00
2019-05-22T05:25:58.907Z,868.00
2019-05-22T05:26:58.916Z,1312.00
2019-05-22T05:27:58.874Z,1468.00
2019-05-22T05:28:58.873Z,1420.00
2019-05-22T05:29:58.860Z,1420.00
2019-05-22T05:30:58.825Z,1612.00
2019-05-22T05:31:58.822Z,1680.00
2019-05-22T05:32:58.801Z,1760.00
2019-05-22T05:33:58.797Z,1792.00
2019-05-22T05:34:58.795Z,1720.00
2019-05-22T05:35:58.790Z,1840.00
2019-05-22T05:36:58.783Z,1844.00
2019-05-22T05:37:58.772Z,1896.00
2019-05-22T05:38:58.736Z,1832.00
2019-05-22T05:39:58.783Z,1628.00
2019-05-22T05:40:58.772Z,1692.00
2019-05-22T05:41:58.777Z,1916.00
2019-05-22T05:42:58.694Z,1904.00
2019-05-22T05:43:58.699Z,1932.00
2019-05-22T05:44:58.665Z,1908.00
2019-05-22T05:45:58.653Z,2164.00
2019-05-22T05:46:58.641Z,2332.00
2019-05-22T05:47:58.661Z,2328.00
2019-05-22T05:48:58.638Z,2244.00
2019-05-22T05:49:58.614Z,2484.00
2019-05-22T05:50:58.598Z,2384.00
2019-05-22T05:51:58.596Z,2652.00
2019-05-22T05:52:58.591Z,2684.00
2019-05-22T05:53:58.600Z,2832.00
2019-05-22T05:54:58.550Z,2928.00
2019-05-22T05:55:58.546Z,2968.00
2019-05-22T05:56:58.535Z,2920.00
2019-05-22T05:57:58.520Z,2904.00
2019-05-22T05:58:58.514Z,3236.00
2019-05-22T05:59:58.523Z,3272.00
2019-05-22T06:00:58.483Z,3456.00
2019-05-22T06:01:58.477Z,3520.00
2019-05-22T06:02:58.484Z,3544.00
2019-05-22T06:03:58.450Z,3720.00
2019-05-22T06:04:58.438Z,3488.00
2019-05-22T06:05:58.448Z,3772.00
2019-05-22T06:07:00.788Z,4024.00
2019-05-22T06:07:58.458Z,4480.00
2019-05-22T06:08:58.416Z,4716.00
2019-05-22T06:09:58.384Z,4864.00
2019-05-22T06:10:58.376Z,4568.00
2019-05-22T06:11:58.384Z,4860.00
2019-05-22T06:12:58.351Z,4780.00
2019-05-22T06:13:58.340Z,4924.00
2019-05-22T06:14:58.323Z,4988.00
2019-05-22T06:15:58.317Z,5252.00
2019-05-22T06:16:58.302Z,5552.00
2019-05-22T06:17:58.326Z,5480.00
2019-05-22T06:18:58.281Z,5872.00
2019-05-22T06:19:58.269Z,6124.00
2019-05-22T06:21:03.811Z,6596.00
2019-05-22T06:21:59.264Z,7244.00
2019-05-22T06:22:58.236Z,6804.00
2019-05-22T06:23:58.249Z,6988.00
2019-05-22T06:24:58.210Z,7192.00
2019-05-22T06:25:58.200Z,7556.00
2019-05-22T06:26:58.272Z,8260.00
2019-05-22T06:27:58.174Z,8128.00
2019-05-22T06:28:58.192Z,7136.00
2019-05-22T06:29:58.172Z,6976.00
2019-05-22T06:30:58.139Z,7200.00
2019-05-22T06:31:58.137Z,7156.00
2019-05-22T06:32:58.121Z,7380.00
2019-05-22T06:33:58.107Z,7628.00
2019-05-22T06:34:59.797Z,7672.00
2019-05-22T06:35:58.108Z,7452.00
2019-05-22T06:36:58.077Z,7684.00
2019-05-22T06:37:58.060Z,7824.00
2019-05-22T06:38:58.058Z,7928.00
2019-05-22T06:39:58.069Z,7852.00
2019-05-22T06:40:58.077Z,7884.00
2019-05-22T06:41:58.033Z,8064.00
2019-05-22T06:42:58.014Z,8052.00
2019-05-22T06:43:57.995Z,8084.00
2019-05-22T06:44:57.980Z,7548.00
2019-05-22T06:45:57.968Z,7160.00
2019-05-22T06:46:57.959Z,7020.00
2019-05-22T06:47:57.991Z,6860.00
2019-05-22T06:48:57.931Z,6224.00
2019-05-22T06:49:57.961Z,5928.00
2019-05-22T06:50:57.918Z,6068.00
2019-05-22T06:51:57.908Z,5904.00
2019-05-22T06:53:09.453Z,5748.00
2019-05-22T06:53:58.891Z,5856.00
2019-05-22T06:54:58.631Z,5608.00
2019-05-22T06:55:57.853Z,5324.00
2019-05-22T06:56:57.837Z,5164.00
2019-05-22T06:57:57.827Z,5132.00
2019-05-22T06:58:57.817Z,5172.00
2019-05-22T07:00:12.220Z,5368.00
2019-05-22T07:00:58.791Z,5692.00
2019-05-22T07:02:01.475Z,5640.00
2019-05-22T07:02:57.769Z,5844.00
2019-05-22T07:03:57.758Z,6476.00
2019-05-22T07:04:57.750Z,6960.00
2019-05-22T07:05:57.754Z,6880.00
2019-05-22T07:06:57.735Z,6804.00
2019-05-22T07:07:57.712Z,7020.00
2019-05-22T07:08:57.699Z,7196.00
2019-05-22T07:09:57.691Z,7196.00
2019-05-22T07:10:57.689Z,7196.00
2019-05-22T07:11:57.684Z,7088.00
2019-05-22T07:12:57.656Z,7032.00
2019-05-22T07:13:57.650Z,6668.00
2019-05-22T07:14:57.634Z,6436.00
2019-05-22T07:15:57.624Z,6536.00
2019-05-22T07:16:57.610Z,6580.00
2019-05-22T07:17:57.620Z,6832.00
2019-05-22T07:18:57.585Z,6460.00
2019-05-22T07:19:57.577Z,6232.00
2019-05-22T07:20:57.577Z,6532.00
2019-05-22T07:21:57.554Z,6788.00
2019-05-22T07:22:57.548Z,6828.00
2019-05-22T07:23:57.552Z,6832.00
2019-05-22T07:24:57.541Z,6744.00
2019-05-22T07:25:57.524Z,6816.00
2019-05-22T07:26:57.492Z,6996.00
2019-05-22T07:27:57.490Z,7116.00
2019-05-22T07:29:00.858Z,7180.00
2019-05-22T07:29:58.479Z,7460.00
2019-05-22T07:30:57.454Z,7804.00
2019-05-22T07:31:57.441Z,8044.00
2019-05-22T07:32:57.449Z,8024.00
2019-05-22T07:33:57.413Z,8196.00
2019-05-22T07:34:57.418Z,8604.00
2019-05-22T07:36:09.215Z,8952.00
2019-05-22T07:36:58.380Z,8456.00
2019-05-22T07:37:57.362Z,8588.00
2019-05-22T07:38:57.352Z,9112.00
2019-05-22T07:39:57.341Z,9212.00
2019-05-22T07:40:57.329Z,9248.00
2019-05-22T07:41:57.334Z,9532.00
2019-05-22T07:42:57.307Z,9892.00
2019-05-22T07:43:57.294Z,10180.00
2019-05-22T07:44:57.281Z,10272.00
2019-05-22T07:45:57.292Z,10336.00
2019-05-22T07:46:57.253Z,10728.00
2019-05-22T07:47:57.262Z,10656.00
2019-05-22T07:48:57.229Z,10836.00
2019-05-22T07:49:57.223Z,11312.00
2019-05-22T07:50:57.205Z,12044.00
2019-05-22T07:52:01.619Z,12012.00
2019-05-22T07:52:57.190Z,11760.00
2019-05-22T07:53:57.200Z,11632.00
2019-05-22T07:54:57.165Z,11784.00
2019-05-22T07:55:57.151Z,12552.00
2019-05-22T07:56:57.134Z,12832.00
2019-05-22T07:57:57.126Z,12940.00
2019-05-22T07:58:59.093Z,13108.00
2019-05-22T07:59:57.127Z,12692.00
2019-05-22T08:00:57.092Z,12372.00
2019-05-22T08:01:57.076Z,12676.00
2019-05-22T08:02:57.064Z,13388.00
2019-05-22T08:03:57.051Z,14108.00
2019-05-22T08:04:57.041Z,14252.00
2019-05-22T08:05:57.043Z,14324.00
2019-05-22T08:06:57.014Z,14412.00
2019-05-22T08:07:57.000Z,14608.00
2019-05-22T08:08:56.990Z,14952.00
2019-05-22T08:09:56.978Z,15332.00
2019-05-22T08:10:56.966Z,15444.00
2019-05-22T08:11:56.990Z,15308.00
2019-05-22T08:12:56.942Z,15068.00
2019-05-22T08:13:56.944Z,15632.00
2019-05-22T08:14:56.919Z,16604.00
2019-05-22T08:15:56.906Z,17568.00
2019-05-22T08:16:56.899Z,17472.00
2019-05-22T08:17:56.906Z,17152.00
2019-05-22T08:18:56.873Z,17024.00
2019-05-22T08:19:56.867Z,16832.00
2019-05-22T08:20:56.852Z,16928.00
2019-05-22T08:22:06.732Z,17536.00
2019-05-22T08:22:57.843Z,17824.00
2019-05-22T08:23:56.835Z,17440.00
2019-05-22T08:24:56.826Z,17184.00
2019-05-22T08:25:56.791Z,17536.00
2019-05-22T08:26:56.777Z,17248.00
2019-05-22T08:27:56.773Z,17216.00
2019-05-22T08:28:56.778Z,17472.00
2019-05-22T08:29:57.196Z,17824.00
2019-05-22T08:30:56.731Z,18688.00
2019-05-22T08:31:56.744Z,18496.00
2019-05-22T08:32:56.741Z,18784.00
2019-05-22T08:33:56.705Z,18528.00
2019-05-22T08:34:56.712Z,17824.00
2019-05-22T08:35:56.688Z,18112.00
2019-05-22T08:36:56.709Z,19328.00
2019-05-22T08:37:56.656Z,20544.00
2019-05-22T08:38:56.666Z,19872.00
2019-05-22T08:39:56.693Z,19168.00
2019-05-22T08:40:56.677Z,19776.00
2019-05-22T08:41:56.623Z,20544.00
2019-05-22T08:42:56.601Z,20352.00
2019-05-22T08:44:15.285Z,19520.00
2019-05-22T08:44:57.571Z,19552.00
2019-05-22T08:45:56.609Z,20128.00
2019-05-22T08:46:56.645Z,19712.00
2019-05-22T08:47:56.564Z,19360.00
2019-05-22T08:48:56.537Z,19360.00
2019-05-22T08:49:56.534Z,19744.00
2019-05-22T08:50:56.518Z,21344.00
2019-05-22T08:51:56.496Z,23328.00
2019-05-22T08:52:56.554Z,23968.00
2019-05-22T08:53:56.471Z,23840.00
2019-05-22T08:54:56.487Z,24736.00
2019-05-22T08:55:56.477Z,26112.00
2019-05-22T08:56:56.436Z,26112.00
2019-05-22T08:57:56.444Z,26752.00
2019-05-22T08:58:56.435Z,27584.00
2019-05-22T08:59:56.426Z,27744.00
2019-05-22T09:00:56.405Z,27680.00
2019-05-22T09:01:56.386Z,29504.00
2019-05-22T09:02:56.381Z,31616.00
2019-05-22T09:03:56.373Z,32448.00
2019-05-22T09:04:56.415Z,33024.00
2019-05-22T09:05:56.357Z,33152.00
2019-05-22T09:06:56.326Z,31072.00
2019-05-22T09:07:56.319Z,29888.00
2019-05-22T09:08:56.312Z,30880.00
2019-05-22T09:09:56.313Z,32864.00
2019-05-22T09:10:56.337Z,34080.00
2019-05-22T09:11:56.286Z,37024.00
2019-05-22T09:12:56.277Z,42336.00
2019-05-22T09:13:56.246Z,40320.00
2019-05-22T09:14:56.241Z,39232.00
2019-05-22T09:15:56.244Z,40896.00
2019-05-22T09:16:56.288Z,42048.00
2019-05-22T09:17:56.229Z,41088.00
2019-05-22T09:18:56.189Z,39328.00
2019-05-22T09:19:56.227Z,34016.00
2019-05-22T09:20:56.172Z,30976.00
2019-05-22T09:21:56.155Z,31360.00
2019-05-22T09:22:56.167Z,31104.00
2019-05-22T09:23:56.135Z,29760.00
2019-05-22T09:24:56.155Z,31168.00
2019-05-22T09:25:56.122Z,30464.00
2019-05-22T09:26:56.130Z,25408.00
2019-05-22T09:27:56.104Z,23168.00
2019-05-22T09:28:56.109Z,22112.00
2019-05-22T09:29:56.100Z,22880.00
2019-05-22T09:30:56.065Z,25408.00
2019-05-22T09:31:56.048Z,28960.00
2019-05-22T09:32:56.042Z,33248.00
2019-05-22T09:33:56.027Z,37184.00
2019-05-22T09:34:56.034Z,46400.00
2019-05-22T09:35:56.004Z,40128.00
2019-05-22T09:36:55.992Z,41952.00
2019-05-22T09:37:55.990Z,45056.00
2019-05-22T09:38:55.971Z,40160.00
2019-05-22T09:39:55.964Z,38144.00
2019-05-22T09:40:55.968Z,37504.00
2019-05-22T09:41:55.955Z,41696.00
2019-05-22T09:42:55.978Z,44160.00
2019-05-22T09:43:55.914Z,36032.00
2019-05-22T09:44:55.909Z,36736.00
2019-05-22T09:45:55.889Z,35648.00
2019-05-22T09:46:55.894Z,35296.00
2019-05-22T09:47:55.900Z,42720.00
2019-05-22T09:48:55.861Z,42240.00
2019-05-22T09:49:55.852Z,48928.00
2019-05-22T09:50:55.839Z,98400.00
2019-05-22T09:51:55.825Z,38240.00
2019-05-22T09:52:57.868Z,34816.00
2019-05-22T09:53:55.819Z,40320.00
2019-05-22T09:54:55.791Z,44768.00
2019-05-22T09:55:55.781Z,36800.00
2019-05-22T09:56:55.766Z,29440.00
2019-05-22T09:57:55.763Z,27584.00
2019-05-22T09:58:55.769Z,27456.00
2019-05-22T09:59:55.735Z,26592.00
2019-05-22T10:00:55.722Z,25824.00
2019-05-22T10:01:55.718Z,25568.00
2019-05-22T10:02:55.701Z,27072.00
2019-05-22T10:03:55.695Z,32704.00
2019-05-22T10:04:55.730Z,39072.00
2019-05-22T10:05:55.803Z,44160.00
2019-05-22T10:06:55.660Z,111424.00
2019-05-22T10:08:00.998Z,45504.00
2019-05-22T10:08:56.633Z,101216.00
2019-05-22T10:09:55.620Z,39424.00
2019-05-22T10:10:55.642Z,32544.00
2019-05-22T10:11:55.599Z,29408.00
2019-05-22T10:12:55.605Z,28160.00
2019-05-22T10:13:55.577Z,29312.00
2019-05-22T10:14:55.824Z,34208.00
2019-05-22T10:15:55.552Z,38688.00
2019-05-22T10:16:55.569Z,37536.00
2019-05-22T10:17:55.537Z,32256.00
2019-05-22T10:18:55.525Z,31072.00
2019-05-22T10:19:55.517Z,31264.00
2019-05-22T10:20:55.523Z,36128.00
2019-05-22T10:21:55.487Z,99200.00
2019-05-22T10:22:55.497Z,82944.00
2019-05-22T10:23:55.464Z,48800.00
2019-05-22T10:25:13.802Z,35264.00
2019-05-22T10:25:56.443Z,34208.00
2019-05-22T10:26:55.796Z,87040.00
2019-05-22T10:27:59.028Z,42048.00
2019-05-22T10:28:55.426Z,32384.00
2019-05-22T10:29:55.403Z,29920.00
2019-05-22T10:30:56.962Z,26336.00
2019-05-22T10:31:55.392Z,23360.00
2019-05-22T10:32:55.369Z,24576.00
2019-05-22T10:33:55.354Z,24416.00
2019-05-22T10:34:57.698Z,103360.00
2019-05-22T10:35:55.361Z,104352.00
2019-05-22T10:36:55.326Z,64736.00
2019-05-22T10:37:55.317Z,106048.00
2019-05-22T10:38:55.322Z,109088.00
2019-05-22T10:39:55.308Z,109280.00
2019-05-22T10:40:58.777Z,115648.00
2019-05-22T10:41:55.269Z,112928.00
2019-05-22T10:42:55.294Z,28512.00
2019-05-22T10:43:55.370Z,26304.00
2019-05-22T10:44:55.242Z,26112.00
2019-05-22T10:45:55.234Z,63712.00
2019-05-22T10:46:55.235Z,32512.00
2019-05-22T10:47:55.206Z,30080.00
2019-05-22T10:48:55.201Z,33856.00
2019-05-22T10:49:55.187Z,49248.00
2019-05-22T10:50:55.176Z,90016.00
2019-05-22T10:51:55.160Z,37920.00
2019-05-22T10:52:55.285Z,28640.00
2019-05-22T10:53:55.138Z,31776.00
2019-05-22T10:54:56.111Z,110976.00
2019-05-22T10:55:55.137Z,38912.00
2019-05-22T10:56:55.110Z,51168.00
2019-05-22T10:57:55.167Z,32384.00
2019-05-22T10:58:55.129Z,112736.00
2019-05-22T10:59:55.074Z,35776.00
2019-05-22T11:00:55.063Z,25088.00
2019-05-22T11:01:55.200Z,23168.00
2019-05-22T11:02:55.035Z,28320.00
2019-05-22T11:03:55.046Z,96288.00
2019-05-22T11:04:55.036Z,84576.00
2019-05-22T11:06:06.538Z,33440.00
2019-05-22T11:06:55.995Z,32960.00
2019-05-22T11:07:54.990Z,36416.00
2019-05-22T11:08:54.974Z,116096.00
2019-05-22T11:09:54.962Z,97984.00
2019-05-22T11:10:55.051Z,82016.00
2019-05-22T11:11:54.939Z,78112.00
2019-05-22T11:12:54.999Z,106624.00
2019-05-22T11:14:01.346Z,110336.00
2019-05-22T11:14:55.912Z,105472.00
2019-05-22T11:15:54.898Z,108864.00
2019-05-22T11:16:54.913Z,107264.00
2019-05-22T11:17:54.882Z,111872.00
2019-05-22T11:18:54.868Z,112128.00
2019-05-22T11:19:54.856Z,63264.00
2019-05-22T11:20:54.846Z,25984.00
2019-05-22T11:21:57.026Z,29536.00
2019-05-22T11:22:54.955Z,28416.00
2019-05-22T11:23:54.829Z,27936.00
2019-05-22T11:24:54.803Z,30464.00
2019-05-22T11:25:54.830Z,37152.00
2019-05-22T11:26:54.787Z,50464.00
2019-05-22T11:27:54.770Z,29312.00
2019-05-22T11:28:54.777Z,33056.00
2019-05-22T11:29:54.756Z,101888.00
2019-05-22T11:30:54.752Z,39456.00
2019-05-22T11:31:54.736Z,29280.00
2019-05-22T11:32:54.822Z,101728.00
2019-05-22T11:33:54.736Z,63232.00
2019-05-22T11:34:54.835Z,108672.00
2019-05-22T11:35:54.737Z,101120.00
2019-05-22T11:36:54.677Z,102912.00
2019-05-22T11:37:54.675Z,97024.00
2019-05-22T11:38:54.682Z,95264.00
2019-05-22T11:39:54.665Z,89440.00
2019-05-22T11:40:54.652Z,83776.00
2019-05-22T11:41:54.634Z,20928.00
2019-05-22T11:42:54.685Z,25856.00
2019-05-22T11:43:54.602Z,90400.00
2019-05-22T11:44:54.592Z,90848.00
2019-05-22T11:45:54.577Z,82624.00
2019-05-22T11:46:54.586Z,18268.00
2019-05-22T11:47:54.559Z,19680.00
2019-05-22T11:48:54.544Z,25120.00
2019-05-22T11:49:54.599Z,26304.00
2019-05-22T11:50:54.621Z,28832.00
2019-05-22T11:51:54.519Z,25984.00
2019-05-22T11:52:54.520Z,27200.00
2019-05-22T11:54:08.244Z,25952.00
2019-05-22T11:54:55.479Z,23840.00
2019-05-22T11:55:54.478Z,25856.00
2019-05-22T11:56:54.456Z,25312.00
2019-05-22T11:57:54.446Z,26080.00
2019-05-22T11:58:54.466Z,24544.00
2019-05-22T11:59:54.431Z,28448.00
2019-05-22T12:00:54.416Z,26560.00
2019-05-22T12:01:54.405Z,27040.00
2019-05-22T12:02:54.391Z,24608.00
2019-05-22T12:03:54.380Z,22464.00
2019-05-22T12:04:54.395Z,21376.00
2019-05-22T12:05:54.366Z,19808.00
2019-05-22T12:06:54.348Z,19008.00
2019-05-22T12:07:54.346Z,18204.00
2019-05-22T12:08:54.332Z,18504.00
2019-05-22T12:09:54.328Z,20608.00
2019-05-22T12:10:54.321Z,22048.00
2019-05-22T12:11:54.296Z,24672.00
2019-05-22T12:12:54.353Z,25088.00
2019-05-22T12:13:54.280Z,24896.00
2019-05-22T12:14:54.270Z,21728.00
2019-05-22T12:15:54.249Z,19360.00
2019-05-22T12:16:54.263Z,18784.00
2019-05-22T12:17:54.230Z,18656.00